Time;durP1;ratioP1;P1;durP2;ratioP2;P2;SDS_P1;SDS_P2;PMS_P1;PMS_P2;Temp;Humidity;BMP_temperature;BMP_pressure;BME280_temperature;BME280_humidity;BME280_pressure;Samples;Min_cycle;Max_cycle;Signal;HPM_P1;HPM_P2
2022/10/22 00:01:12;;;;;;;6.55;3.28;;;;;;;12.31;100.00;100867.31;5032421;28;20076;-77
2022/10/22 00:03:37;;;;;;;9.20;3.33;;;;;;;12.30;100.00;100870.91;5014872;28;20100;-77
2022/10/22 00:06:03;;;;;;;10.45;3.55;;;;;;;12.30;100.00;100864.72;5031048;28;20392;-77
2022/10/22 00:08:29;;;;;;;10.43;3.10;;;;;;;12.30;100.00;100867.38;5035240;28;20025;-77
2022/10/22 00:10:55;;;;;;;15.50;3.15;;;;;;;12.29;100.00;100868.28;5041367;28;20046;-76
2022/10/22 00:13:20;;;;;;;9.18;3.47;;;;;;;12.27;100.00;100876.31;5035147;28;20041;-77
2022/10/22 00:15:46;;;;;;;6.95;3.17;;;;;;;12.25;100.00;100872.81;5033127;28;20072;-77
2022/10/22 00:18:11;;;;;;;9.95;4.05;;;;;;;12.23;100.00;100874.63;5014687;28;20463;-77
2022/10/22 00:20:37;;;;;;;10.00;3.35;;;;;;;12.22;100.00;100881.75;5046963;28;20037;-77
2022/10/22 00:23:02;;;;;;;5.90;3.38;;;;;;;12.19;100.00;100872.97;5032086;28;20045;-77
2022/10/22 00:25:28;;;;;;;7.45;3.30;;;;;;;12.16;100.00;100876.59;5033199;28;20079;-77
2022/10/22 00:27:53;;;;;;;10.45;3.55;;;;;;;12.12;100.00;100874.94;5031739;28;20426;-76
2022/10/22 00:30:18;;;;;;;6.60;3.05;;;;;;;12.08;100.00;100870.63;5030565;28;20072;-76
2022/10/22 00:32:44;;;;;;;13.50;4.70;;;;;;;12.07;100.00;100870.66;5030276;28;20037;-76
2022/10/22 00:35:10;;;;;;;7.03;3.83;;;;;;;12.03;100.00;100870.75;5030416;28;20033;-76
2022/10/22 00:37:35;;;;;;;12.95;4.10;;;;;;;12.01;100.00;100871.72;5018389;28;20026;-76
2022/10/22 00:40:00;;;;;;;14.93;3.97;;;;;;;11.97;100.00;100878.03;5031645;28;20088;-76
2022/10/22 00:42:30;;;;;;;10.68;4.15;;;;;;;11.91;100.00;100876.38;5030324;28;20045;-76
2022/10/22 00:45:01;;;;;;;7.63;3.90;;;;;;;11.84;100.00;100875.69;5030104;28;20174;-76
2022/10/22 00:47:30;;;;;;;8.88;4.05;;;;;;;11.82;100.00;100880.16;5046899;28;20069;-76
2022/10/22 00:49:57;;;;;;;10.38;3.88;;;;;;;11.77;100.00;100879.41;4997551;28;20029;-76
2022/10/22 00:52:23;;;;;;;8.68;4.35;;;;;;;11.75;100.00;100872.38;5020042;28;20049;-76
2022/10/22 00:54:50;;;;;;;9.95;3.67;;;;;;;11.70;100.00;100876.94;5013488;28;20036;-76
2022/10/22 00:57:18;;;;;;;6.53;3.45;;;;;;;11.68;100.00;100878.75;5031115;28;20049;-76
2022/10/22 00:59:44;;;;;;;8.68;3.75;;;;;;;11.64;100.00;100872.66;5029988;28;20044;-76
2022/10/22 01:02:09;;;;;;;14.85;3.92;;;;;;;11.60;100.00;100869.22;5031344;28;20037;-76
2022/10/22 01:04:35;;;;;;;6.68;3.83;;;;;;;11.60;100.00;100876.31;5029462;28;20359;-76
2022/10/22 01:07:00;;;;;;;13.02;4.13;;;;;;;11.59;100.00;100875.41;5029110;28;20049;-77
2022/10/22 01:09:45;;;;;;;16.63;3.85;;;;;;;11.56;100.00;100870.19;5038874;28;20041;-76
2022/10/22 01:12:10;;;;;;;12.43;4.35;;;;;;;11.56;100.00;100872.84;5033807;28;20105;-76
2022/10/22 01:15:09;;;;;;;6.95;4.05;;;;;;;11.61;100.00;100867.44;5035226;28;20134;-76
2022/10/22 01:17:59;;;;;;;7.63;3.78;;;;;;;11.59;100.00;100877.19;5031184;28;20029;-76
2022/10/22 01:20:40;;;;;;;13.32;4.20;;;;;;;11.57;100.00;100876.38;5018674;28;20030;-76
2022/10/22 01:23:15;;;;;;;7.30;4.13;;;;;;;11.55;100.00;100872.91;5014235;28;20046;-76
2022/10/22 01:25:48;;;;;;;9.15;4.72;;;;;;;11.52;100.00;100868.56;5020876;28;20460;-76
2022/10/22 01:28:37;;;;;;;19.98;4.53;;;;;;;11.51;100.00;100865.94;5030495;28;20038;-76
2022/10/22 01:31:04;;;;;;;8.15;3.80;;;;;;;11.48;100.00;100866.00;5007302;28;20057;-76
2022/10/22 01:33:31;;;;;;;10.73;4.55;;;;;;;11.48;100.00;100863.34;5031044;28;20084;-76
2022/10/22 01:35:58;;;;;;;10.85;4.28;;;;;;;11.48;100.00;100860.72;5028674;28;20041;-76
2022/10/22 01:38:25;;;;;;;10.32;4.35;;;;;;;11.44;100.00;100862.53;5029780;28;20022;-76
2022/10/22 01:40:51;;;;;;;12.25;4.53;;;;;;;11.39;100.00;100864.44;5029762;28;20038;-76
2022/10/22 01:43:16;;;;;;;9.23;3.40;;;;;;;11.38;100.00;100863.56;5029544;28;20044;-76
2022/10/22 01:45:43;;;;;;;9.75;3.97;;;;;;;11.37;100.00;100864.50;5031085;28;20036;-76
2022/10/22 01:48:27;;;;;;;12.80;4.65;;;;;;;11.36;100.00;100868.03;5030789;28;20152;-76
2022/10/22 01:51:10;;;;;;;11.95;4.07;;;;;;;11.37;100.00;100866.25;5030520;28;20037;-76
2022/10/22 01:53:47;;;;;;;8.80;4.40;;;;;;;11.35;100.00;100868.06;5041288;28;20033;-76
2022/10/22 01:56:21;;;;;;;7.00;4.18;;;;;;;11.34;100.00;100866.34;5023182;28;20037;-76
2022/10/22 01:59:03;;;;;;;13.25;4.40;;;;;;;11.36;100.00;100867.19;5029677;28;20025;-76
2022/10/22 02:01:41;;;;;;;11.95;4.35;;;;;;;11.34;100.00;100863.69;5029617;28;20037;-76
2022/10/22 02:04:19;;;;;;;14.80;4.28;;;;;;;11.36;100.00;100865.41;5030759;28;20104;-76
2022/10/22 02:06:48;;;;;;;19.42;4.32;;;;;;;11.35;100.00;100863.66;5030709;28;20042;-76
2022/10/22 02:09:19;;;;;;;12.40;4.50;;;;;;;11.43;100.00;100870.56;5036884;28;20047;-76
2022/10/22 02:11:46;;;;;;;14.90;4.50;;;;;;;11.46;100.00;100867.81;5039191;28;20504;-76
2022/10/22 02:14:15;;;;;;;14.40;5.85;;;;;;;11.50;100.00;100873.00;5053499;28;20457;-76
2022/10/22 02:16:43;;;;;;;11.45;4.35;;;;;;;11.56;100.00;100874.63;5034425;28;20065;-76
2022/10/22 02:19:29;;;;;;;14.35;4.80;;;;;;;11.60;100.00;100871.88;5016613;28;20022;-76
2022/10/22 02:21:55;;;;;;;12.90;4.32;;;;;;;11.65;100.00;100868.22;5034358;28;20037;-76
2022/10/22 02:24:22;;;;;;;11.55;4.63;;;;;;;11.69;100.00;100869.88;5034477;28;20467;-76
2022/10/22 02:27:01;;;;;;;9.43;4.18;;;;;;;11.72;100.00;100861.84;5035719;28;20053;-76
2022/10/22 02:29:35;;;;;;;13.70;4.18;;;;;;;11.72;100.00;100853.88;5018694;28;20543;-76
2022/10/22 02:32:04;;;;;;;14.38;4.22;;;;;;;11.75;100.00;100859.13;5034337;28;20499;-76
2022/10/22 02:34:31;;;;;;;9.82;4.10;;;;;;;11.74;100.00;100858.22;5034337;28;20052;-76
2022/10/22 02:36:59;;;;;;;20.10;4.50;;;;;;;11.77;100.00;100851.97;5034233;28;20398;-76
2022/10/22 02:39:29;;;;;;;13.57;5.57;;;;;;;11.78;100.00;100864.34;5035628;28;20021;-76
2022/10/22 02:41:56;;;;;;;12.10;5.50;;;;;;;11.79;100.00;100863.41;5032995;28;20480;-76
2022/10/22 02:44:23;;;;;;;11.52;4.72;;;;;;;11.77;100.00;100858.16;5016032;28;20432;-76
2022/10/22 02:46:49;;;;;;;14.07;4.45;;;;;;;11.79;100.00;100866.06;5049479;28;20075;-76
2022/10/22 02:49:15;;;;;;;8.77;4.70;;;;;;;11.81;100.00;100867.78;5032480;28;20116;-76
2022/10/22 02:51:40;;;;;;;14.10;4.50;;;;;;;11.84;100.00;100867.72;5032579;28;20121;-76
2022/10/22 02:54:05;;;;;;;9.02;4.60;;;;;;;11.86;100.00;100865.00;5034080;28;20108;-76
2022/10/22 02:56:31;;;;;;;9.38;5.00;;;;;;;11.87;100.00;100869.44;5032249;28;20044;-76
2022/10/22 02:58:56;;;;;;;15.82;4.90;;;;;;;11.87;100.00;100873.84;5033958;28;20072;-76
2022/10/22 03:01:22;;;;;;;11.93;3.83;;;;;;;11.83;100.00;100868.59;5033617;28;20041;-76
2022/10/22 03:03:47;;;;;;;9.63;4.15;;;;;;;11.87;100.00;100868.56;5033602;28;20516;-76
2022/10/22 03:06:13;;;;;;;11.98;4.22;;;;;;;11.88;100.00;100867.66;5033646;28;20056;-76
2022/10/22 03:08:39;;;;;;;9.35;4.35;;;;;;;11.87;100.00;100869.44;5036852;28;20041;-76
2022/10/22 03:11:04;;;;;;;14.20;4.40;;;;;;;11.90;100.00;100874.66;5039968;28;20068;-76
2022/10/22 03:13:30;;;;;;;13.30;4.50;;;;;;;11.90;100.00;100874.66;5033147;28;20063;-76
2022/10/22 03:15:55;;;;;;;16.15;4.28;;;;;;;11.92;100.00;100871.94;5032193;28;20065;-76
2022/10/22 03:18:20;;;;;;;11.57;4.43;;;;;;;11.96;100.00;100871.81;5015551;28;20044;-76
2022/10/22 03:20:46;;;;;;;12.38;4.70;;;;;;;11.97;100.00;100876.25;5031697;28;20037;-76
2022/10/22 03:23:14;;;;;;;10.40;4.13;;;;;;;11.98;100.00;100877.97;5015545;28;20098;-76
2022/10/22 03:25:43;;;;;;;10.25;3.70;;;;;;;11.97;100.00;100881.56;5036250;28;20388;-76
2022/10/22 03:28:12;;;;;;;12.02;4.72;;;;;;;12.00;100.00;100885.91;5047673;28;20111;-76
2022/10/22 03:30:38;;;;;;;8.85;3.83;;;;;;;11.95;100.00;100879.84;5027756;28;20112;-76
2022/10/22 03:33:03;;;;;;;12.95;4.72;;;;;;;11.95;100.00;100888.69;5031720;28;20124;-76
2022/10/22 03:35:30;;;;;;;9.73;4.45;;;;;;;11.96;100.00;100887.75;5032961;28;20037;-77
2022/10/22 03:37:59;;;;;;;18.33;4.90;;;;;;;11.97;100.00;100896.59;5031741;28;20028;-76
2022/10/22 03:40:25;;;;;;;23.90;5.18;;;;;;;11.97;100.00;100894.81;5047969;28;20219;-76
2022/10/22 03:42:51;;;;;;;11.25;3.70;;;;;;;12.00;100.00;100901.84;5032918;28;20482;-76
2022/10/22 03:45:16;;;;;;;10.32;3.72;;;;;;;12.01;100.00;100898.25;5031488;28;20509;-76
2022/10/22 03:47:42;;;;;;;10.93;4.28;;;;;;;12.02;100.00;100892.91;5032896;28;20068;-76
2022/10/22 03:50:08;;;;;;;16.73;4.75;;;;;;;12.01;100.00;100895.59;5031348;28;20075;-76
2022/10/22 03:52:37;;;;;;;13.95;4.10;;;;;;;12.01;100.00;100903.56;5032262;28;20429;-76
2022/10/22 03:55:04;;;;;;;9.50;4.05;;;;;;;11.99;100.00;100908.94;5032335;28;20124;-76
2022/10/22 03:57:30;;;;;;;11.05;4.18;;;;;;;12.00;100.00;100905.34;5014998;28;20036;-76
2022/10/22 03:59:56;;;;;;;17.65;4.18;;;;;;;12.02;100.00;100906.19;5031193;28;20034;-76
2022/10/22 04:02:21;;;;;;;10.77;4.30;;;;;;;12.00;100.00;100912.44;5031486;28;20025;-76
2022/10/22 04:04:46;;;;;;;13.20;4.20;;;;;;;11.99;100.00;100916.00;5032275;28;20045;-76
2022/10/22 04:07:12;;;;;;;13.85;4.53;;;;;;;12.04;100.00;100930.00;5015094;28;20057;-76
2022/10/22 04:09:37;;;;;;;16.55;4.60;;;;;;;12.03;100.00;100913.22;5039741;28;20105;-76
2022/10/22 04:12:07;;;;;;;12.18;4.45;;;;;;;12.05;100.00;100915.84;5032685;28;20458;-76
2022/10/22 04:14:33;;;;;;;12.50;3.70;;;;;;;12.01;100.00;100919.47;5033665;28;20094;-76
2022/10/22 04:16:58;;;;;;;14.93;4.82;;;;;;;12.02;100.00;100919.44;5031200;28;20021;-76
2022/10/22 04:19:24;;;;;;;18.17;5.60;;;;;;;12.02;100.00;100910.63;5032375;28;20026;-76
2022/10/22 04:21:49;;;;;;;16.80;4.95;;;;;;;12.07;100.00;100914.03;5047295;28;20029;-77
2022/10/22 04:24:15;;;;;;;17.70;4.95;;;;;;;12.08;100.00;100915.75;5030832;28;20079;-77
2022/10/22 04:26:41;;;;;;;13.57;4.88;;;;;;;12.10;100.00;100919.25;5045201;28;20025;-76
2022/10/22 04:29:06;;;;;;;10.43;4.10;;;;;;;12.10;100.00;100918.38;5029178;28;20053;-76
2022/10/22 04:31:32;;;;;;;13.65;4.50;;;;;;;12.11;100.00;100920.09;5031415;28;20520;-77
2022/10/22 04:33:59;;;;;;;16.75;4.70;;;;;;;12.12;100.00;100911.25;5031780;28;20045;-76
2022/10/22 04:36:26;;;;;;;10.15;4.97;;;;;;;12.11;100.00;100920.97;5030089;28;20036;-76
2022/10/22 04:38:54;;;;;;;31.65;5.40;;;;;;;12.12;100.00;100920.09;5031763;28;20017;-77
2022/10/22 04:41:23;;;;;;;18.10;5.60;;;;;;;12.13;100.00;100919.16;5031400;28;20114;-76
2022/10/22 04:43:49;;;;;;;23.55;5.35;;;;;;;12.16;100.00;100924.38;5031751;28;20378;-76
2022/10/22 04:46:17;;;;;;;17.05;5.10;;;;;;;12.14;100.00;100917.38;5031452;28;20028;-76
2022/10/22 04:48:43;;;;;;;21.92;5.32;;;;;;;12.18;100.00;100925.22;5031724;28;20045;-76
2022/10/22 04:51:12;;;;;;;16.92;4.88;;;;;;;12.18;100.00;100927.88;5030156;28;20029;-76
2022/10/22 04:53:39;;;;;;;25.08;6.38;;;;;;;12.22;100.00;100926.00;5031617;28;20353;-76
2022/10/22 04:56:23;;;;;;;27.52;5.22;;;;;;;12.22;100.00;100933.97;5031409;28;20025;-76
2022/10/22 04:58:52;;;;;;;14.15;4.65;;;;;;;12.20;100.00;100936.66;5046878;28;20057;-76
2022/10/22 05:01:20;;;;;;;23.55;5.70;;;;;;;12.22;100.00;100937.50;5031392;28;20029;-76
2022/10/22 05:03:48;;;;;;;11.00;4.30;;;;;;;12.25;100.00;100942.72;5031619;28;20036;-77
2022/10/22 05:06:14;;;;;;;15.93;4.60;;;;;;;12.23;100.00;100941.88;5031427;28;20036;-77
2022/10/22 05:08:40;;;;;;;18.83;5.28;;;;;;;12.30;100.00;100939.06;5049971;28;20052;-77
2022/10/22 05:11:17;;;;;;;18.55;4.28;;;;;;;12.29;100.00;100939.97;5037012;28;20076;-76
2022/10/22 05:13:43;;;;;;;20.70;5.32;;;;;;;12.31;100.00;100941.66;5032853;28;20037;-76
2022/10/22 05:16:09;;;;;;;19.95;4.95;;;;;;;12.30;100.00;100937.28;5030069;28;20049;-77
2022/10/22 05:18:39;;;;;;;21.17;4.50;;;;;;;12.32;100.00;100946.09;5031331;28;20037;-77
2022/10/22 05:21:11;;;;;;;16.48;4.85;;;;;;;12.35;100.00;100945.13;5031196;28;20513;-76
2022/10/22 05:23:37;;;;;;;17.10;4.60;;;;;;;12.35;100.00;100942.47;5031421;28;20037;-77
2022/10/22 05:26:07;;;;;;;11.80;4.45;;;;;;;12.38;100.00;100955.66;5039054;28;20112;-76
2022/10/22 05:28:33;;;;;;;15.53;5.00;;;;;;;12.36;100.00;100942.41;5039789;28;20084;-76
2022/10/22 05:31:00;;;;;;;13.77;4.18;;;;;;;12.42;100.00;100949.38;5040597;28;20058;-77
2022/10/22 05:33:27;;;;;;;16.35;4.68;;;;;;;12.45;100.00;100943.97;5029763;28;20026;-77
2022/10/22 05:35:53;;;;;;;16.45;4.82;;;;;;;12.48;100.00;100941.22;5029803;28;20441;-77
2022/10/22 05:38:19;;;;;;;19.10;4.85;;;;;;;12.49;100.00;100942.97;5031107;28;20087;-77
2022/10/22 05:40:45;;;;;;;17.10;4.45;;;;;;;12.52;100.00;100950.84;5030770;28;20045;-77
2022/10/22 05:43:11;;;;;;;12.38;4.20;;;;;;;12.52;100.00;100948.19;5014251;28;20041;-77
2022/10/22 05:45:38;;;;;;;11.10;4.00;;;;;;;12.51;100.00;100951.75;5034806;28;20475;-77
2022/10/22 05:48:04;;;;;;;15.05;4.85;;;;;;;12.50;100.00;100954.47;5035172;28;20068;-77
2022/10/22 05:50:30;;;;;;;28.75;4.90;;;;;;;12.52;100.00;100964.13;5033633;28;20136;-77
2022/10/22 05:52:55;;;;;;;22.67;4.07;;;;;;;12.53;100.00;100965.84;5034851;28;20027;-77
2022/10/22 05:55:21;;;;;;;17.30;4.53;;;;;;;12.54;100.00;100967.63;5034931;28;20124;-77
2022/10/22 05:57:48;;;;;;;13.38;4.05;;;;;;;12.53;100.00;100975.63;5050150;28;20035;-76
2022/10/22 06:00:15;;;;;;;13.65;3.92;;;;;;;12.52;100.00;100976.53;5034343;28;20048;-77
2022/10/22 06:02:41;;;;;;;12.75;4.20;;;;;;;12.52;100.00;100973.88;5035021;28;20025;-77
2022/10/22 06:05:06;;;;;;;15.98;4.40;;;;;;;12.50;100.00;100986.34;5032900;28;20040;-77
2022/10/22 06:07:32;;;;;;;20.38;4.28;;;;;;;12.52;100.00;100988.03;5037106;28;20113;-76
2022/10/22 06:09:59;;;;;;;14.15;3.78;;;;;;;12.50;100.00;100979.22;5040424;28;20084;-76
2022/10/22 06:12:25;;;;;;;11.23;4.03;;;;;;;12.53;100.00;100987.09;5034051;28;20488;-77
2022/10/22 06:14:50;;;;;;;13.10;3.42;;;;;;;12.52;100.00;100984.50;5033346;28;20331;-76
2022/10/22 06:17:16;;;;;;;18.00;4.32;;;;;;;12.51;100.00;100988.94;5029697;28;20037;-77
2022/10/22 06:19:41;;;;;;;8.10;3.30;;;;;;;12.48;100.00;100987.22;5032449;28;20032;-76
2022/10/22 06:22:07;;;;;;;14.45;3.50;;;;;;;12.48;100.00;100997.00;5027602;28;20035;-76
2022/10/22 06:24:32;;;;;;;11.95;3.20;;;;;;;12.44;100.00;101012.16;5030968;28;20052;-77
2022/10/22 06:26:58;;;;;;;15.38;3.65;;;;;;;12.44;100.00;101013.94;5036969;28;20083;-76
2022/10/22 06:29:23;;;;;;;9.98;3.10;;;;;;;12.42;100.00;101016.63;5029551;28;20042;-76
2022/10/22 06:31:50;;;;;;;14.98;3.60;;;;;;;12.41;100.00;101017.56;5032661;28;20057;-76
2022/10/22 06:34:17;;;;;;;14.55;3.33;;;;;;;12.40;100.00;101021.09;5032213;28;20045;-77
2022/10/22 06:36:44;;;;;;;11.30;3.22;;;;;;;12.40;100.00;101031.72;5015243;28;20700;-76
2022/10/22 06:39:15;;;;;;;13.98;2.90;;;;;;;12.41;100.00;101033.50;5032565;28;20025;-76
2022/10/22 06:41:41;;;;;;;10.18;3.17;;;;;;;12.40;100.00;101031.72;5034066;28;20041;-77
2022/10/22 06:44:11;;;;;;;11.35;3.20;;;;;;;12.40;100.00;101033.50;5033808;28;20038;-76
2022/10/22 06:46:37;;;;;;;12.48;3.67;;;;;;;12.41;100.00;101036.16;5032730;28;20076;-76
2022/10/22 06:49:04;;;;;;;17.58;3.95;;;;;;;12.43;100.00;101049.34;5048942;28;20061;-76
2022/10/22 06:51:30;;;;;;;13.00;3.13;;;;;;;12.42;100.00;101044.97;5030626;28;20037;-77
2022/10/22 06:53:57;;;;;;;11.45;2.80;;;;;;;12.43;100.00;101054.66;5049224;28;20033;-76
2022/10/22 06:56:26;;;;;;;19.85;3.00;;;;;;;12.45;100.00;101050.19;5029388;28;20445;-77
2022/10/22 06:58:54;;;;;;;11.45;3.13;;;;;;;12.45;100.00;101063.47;5047978;28;20009;-76
2022/10/22 07:01:22;;;;;;;15.65;3.42;;;;;;;12.45;100.00;101064.34;5031709;28;20057;-76
2022/10/22 07:03:50;;;;;;;13.63;2.83;;;;;;;12.47;100.00;101075.81;5033315;28;20041;-77
2022/10/22 07:06:16;;;;;;;22.40;4.18;;;;;;;12.48;100.00;101071.34;5033174;28;20045;-76
2022/10/22 07:08:42;;;;;;;15.13;3.50;;;;;;;12.47;100.00;101074.94;5037522;28;20029;-76
2022/10/22 07:11:16;;;;;;;21.52;3.60;;;;;;;12.48;100.00;101072.22;5019606;28;20100;-77
2022/10/22 07:13:42;;;;;;;13.85;3.90;;;;;;;12.51;100.00;101083.69;5034376;28;20038;-76
2022/10/22 07:16:09;;;;;;;13.70;3.15;;;;;;;12.52;100.00;101088.09;5032469;28;20067;-76
2022/10/22 07:18:36;;;;;;;15.70;3.72;;;;;;;12.54;100.00;101089.81;5032081;28;20009;-76
2022/10/22 07:21:02;;;;;;;10.82;3.03;;;;;;;12.54;100.00;101089.81;5031568;28;20477;-76
2022/10/22 07:23:28;;;;;;;20.80;4.05;;;;;;;12.57;100.00;101087.06;4996413;28;20125;-76
2022/10/22 07:25:54;;;;;;;13.48;2.90;;;;;;;12.60;100.00;101092.28;5033126;28;20074;-77
2022/10/22 07:28:20;;;;;;;13.80;3.47;;;;;;;12.64;100.00;101095.75;5029181;28;20505;-77
2022/10/22 07:30:46;;;;;;;14.13;3.00;;;;;;;12.69;100.00;101099.16;5030740;28;20041;-76
2022/10/22 07:33:12;;;;;;;15.70;3.13;;;;;;;12.71;100.00;101102.66;5029796;28;20602;-76
2022/10/22 07:35:38;;;;;;;17.38;2.97;;;;;;;12.75;100.00;101101.66;5032052;28;20037;-77
2022/10/22 07:38:05;;;;;;;13.80;2.70;;;;;;;12.82;100.00;101107.69;5031174;28;20065;-76
2022/10/22 07:40:30;;;;;;;19.13;3.00;;;;;;;12.88;100.00;101103.06;5031617;28;20365;-77
2022/10/22 07:42:56;;;;;;;12.30;2.53;;;;;;;12.99;100.00;101109.88;5032415;28;20155;-77
2022/10/22 07:45:21;;;;;;;11.77;3.08;;;;;;;13.08;100.00;101106.94;5031720;28;20029;-77
2022/10/22 07:47:47;;;;;;;11.07;2.85;;;;;;;13.17;100.00;101111.16;5032360;28;20374;-78
2022/10/22 07:50:13;;;;;;;10.63;2.92;;;;;;;13.22;100.00;101110.09;5029806;28;20075;-77
2022/10/22 07:52:38;;;;;;;11.85;2.95;;;;;;;13.25;100.00;101110.03;5013565;28;20037;-77
2022/10/22 07:55:04;;;;;;;11.55;3.03;;;;;;;13.39;100.00;101119.41;5032224;28;20029;-77
2022/10/22 07:57:30;;;;;;;12.82;3.03;;;;;;;13.54;100.00;101121.63;5032540;28;20183;-77
2022/10/22 07:59:57;;;;;;;12.02;2.70;;;;;;;13.67;100.00;101119.47;5032185;28;20373;-78
2022/10/22 08:02:23;;;;;;;12.85;3.25;;;;;;;13.78;100.00;101125.34;5024414;28;20056;-77
2022/10/22 08:04:49;;;;;;;10.05;2.40;;;;;;;13.85;100.00;101134.03;5029329;28;20037;-77
2022/10/22 08:07:15;;;;;;;11.35;2.70;;;;;;;13.96;99.67;101132.75;5038467;28;20040;-78
2022/10/22 08:09:40;;;;;;;15.13;3.08;;;;;;;14.02;100.00;101130.81;5027179;28;20069;-77
2022/10/22 08:12:06;;;;;;;10.05;2.92;;;;;;;14.18;96.98;101142.72;5025290;28;20029;-78
2022/10/22 08:14:31;;;;;;;12.57;3.30;;;;;;;14.22;96.85;101135.50;5034089;28;20501;-77
2022/10/22 08:16:57;;;;;;;13.40;3.13;;;;;;;14.27;97.76;101141.53;5030687;28;20030;-77
2022/10/22 08:19:23;;;;;;;12.50;2.60;;;;;;;14.30;97.47;101147.66;5031817;28;20350;-77
2022/10/22 08:21:48;;;;;;;14.50;3.20;;;;;;;14.34;96.53;101159.97;5031900;28;20105;-77
2022/10/22 08:24:14;;;;;;;8.80;2.50;;;;;;;14.38;96.05;101150.06;5030501;28;20244;-77
2022/10/22 08:26:40;;;;;;;17.30;3.10;;;;;;;14.44;95.76;101151.66;5030652;28;20127;-77
2022/10/22 08:29:06;;;;;;;13.68;2.60;;;;;;;14.50;95.83;101157.66;5030023;28;20065;-78
2022/10/22 08:31:32;;;;;;;14.88;3.30;;;;;;;14.55;94.50;101163.75;5031816;28;20053;-73
2022/10/22 08:33:57;;;;;;;11.10;2.65;;;;;;;14.59;95.02;101181.38;5024272;28;20058;-74
2022/10/22 08:36:23;;;;;;;20.45;3.03;;;;;;;14.58;94.39;101176.97;5046655;28;20037;-73
2022/10/22 08:38:48;;;;;;;15.73;3.03;;;;;;;14.58;94.71;101181.44;5030460;28;20044;-77
2022/10/22 08:41:19;;;;;;;14.77;2.35;;;;;;;14.57;94.51;101195.69;5031515;28;20036;-77
2022/10/22 08:44:06;;;;;;;18.50;3.40;;;;;;;14.58;94.51;101192.09;5047095;28;20448;-78
2022/10/22 08:46:59;;;;;;;17.48;3.83;;;;;;;14.55;94.55;101198.38;5031422;28;20543;-77
2022/10/22 08:49:27;;;;;;;13.20;2.80;;;;;;;14.57;95.31;101209.00;5031258;28;20455;-78
2022/10/22 08:51:56;;;;;;;16.67;3.20;;;;;;;14.59;94.62;101194.72;5031575;28;20029;-78
2022/10/22 08:54:44;;;;;;;12.45;2.60;;;;;;;14.62;93.87;101207.06;5046544;28;20127;-78
2022/10/22 08:57:24;;;;;;;11.63;2.33;;;;;;;14.62;94.46;101207.06;5032474;28;20065;-78
2022/10/22 09:00:01;;;;;;;13.25;2.90;;;;;;;14.64;93.94;101210.56;5026693;28;20049;-78
2022/10/22 09:02:39;;;;;;;14.73;2.70;;;;;;;14.66;94.01;101208.69;5031431;28;20038;-77
2022/10/22 09:05:21;;;;;;;12.13;2.25;;;;;;;14.69;93.04;101208.63;5029945;28;20116;-79
2022/10/22 09:07:49;;;;;;;12.20;3.08;;;;;;;14.67;93.63;101217.59;5033989;28;20034;-78
2022/10/22 09:10:17;;;;;;;15.00;2.90;;;;;;;14.66;94.26;101223.81;5039046;28;20020;-77
2022/10/22 09:12:43;;;;;;;12.68;2.83;;;;;;;14.68;94.08;101224.63;5031217;28;20119;-78
2022/10/22 09:15:12;;;;;;;14.15;2.78;;;;;;;14.69;94.34;101226.38;5033798;28;20120;-78
2022/10/22 09:17:58;;;;;;;15.52;2.63;;;;;;;14.75;94.05;101232.38;5030891;28;20053;-77
2022/10/22 09:20:32;;;;;;;10.82;3.03;;;;;;;14.71;93.98;101230.75;5015022;28;20509;-78
2022/10/22 09:23:28;;;;;;;12.75;3.22;;;;;;;14.76;93.70;101241.25;5045466;28;20037;-78
2022/10/22 09:25:56;;;;;;;10.55;2.70;;;;;;;14.73;93.92;101233.34;5019397;28;20071;-77
2022/10/22 09:28:22;;;;;;;10.82;2.63;;;;;;;14.74;93.92;101238.66;5030636;28;20050;-78
2022/10/22 09:30:47;;;;;;;9.43;2.53;;;;;;;14.76;94.36;101250.16;5030858;28;20038;-78
2022/10/22 09:33:16;;;;;;;10.55;2.80;;;;;;;14.79;93.40;101249.16;5027876;28;20509;-78
2022/10/22 09:35:56;;;;;;;17.40;2.70;;;;;;;14.79;93.38;101255.38;5029572;28;20087;-78
2022/10/22 09:38:31;;;;;;;14.65;3.08;;;;;;;14.81;92.99;101257.97;5028603;28;20398;-80
2022/10/22 09:40:59;;;;;;;10.98;2.60;;;;;;;14.82;93.63;101260.59;5029758;28;20072;-78
2022/10/22 09:43:24;;;;;;;11.27;3.13;;;;;;;14.87;93.57;101264.91;5027145;28;20040;-78
2022/10/22 09:46:12;;;;;;;10.55;2.95;;;;;;;14.91;93.76;101270.09;5032293;28;20120;-78
2022/10/22 09:48:40;;;;;;;12.35;3.15;;;;;;;14.94;93.11;101274.47;5030040;28;20040;-78
2022/10/22 09:51:24;;;;;;;12.77;3.50;;;;;;;14.94;93.30;101264.66;5030708;28;20039;-78
2022/10/22 09:53:58;;;;;;;16.25;3.53;;;;;;;14.96;93.08;101272.59;5030825;28;20029;-78
2022/10/22 09:56:34;;;;;;;15.30;4.40;;;;;;;14.98;92.71;101281.41;5030836;28;20041;-78
2022/10/22 09:59:00;;;;;;;11.43;3.47;;;;;;;14.97;91.90;101283.22;5029209;28;20032;-78
2022/10/22 10:01:30;;;;;;;13.02;4.07;;;;;;;14.95;91.70;101289.53;5030605;28;20080;-78
2022/10/22 10:04:08;;;;;;;15.73;3.78;;;;;;;14.95;92.48;101295.72;5030577;28;20041;-78
2022/10/22 10:06:34;;;;;;;24.33;10.50;;;;;;;14.94;92.75;101303.78;5045703;28;20083;-78
2022/10/22 10:09:04;;;;;;;10.57;4.03;;;;;;;14.94;92.37;101307.31;5034981;28;20041;-78
2022/10/22 10:11:42;;;;;;;17.60;6.63;;;;;;;14.93;92.60;101310.03;5028582;28;20116;-78
2022/10/22 10:14:17;;;;;;;24.25;7.63;;;;;;;14.93;92.11;101308.22;5029806;28;20121;-77
2022/10/22 10:17:10;;;;;;;12.32;3.83;;;;;;;15.01;92.22;101313.34;5029247;28;20040;-78
2022/10/22 10:20:10;;;;;;;72.60;48.05;;;;;;;15.12;92.47;101311.19;5028545;28;20044;-78
2022/10/22 10:22:41;;;;;;;33.78;19.45;;;;;;;15.23;91.51;101317.03;5029000;28;20033;-78
2022/10/22 10:25:34;;;;;;;27.30;17.05;;;;;;;15.34;92.86;101324.66;5041875;28;20131;-78
2022/10/22 10:28:29;;;;;;;67.40;43.78;;;;;;;15.46;91.71;101320.72;5007020;28;20058;-78
2022/10/22 10:31:36;;;;;;;21.80;10.70;;;;;;;15.56;91.24;101323.94;5023690;28;20053;-78
2022/10/22 10:34:09;;;;;;;24.25;12.35;;;;;;;15.81;90.51;101314.16;5003505;28;20516;-78
2022/10/22 10:37:04;;;;;;;16.63;6.05;;;;;;;16.07;89.00;101315.00;5033457;28;20033;-78
2022/10/22 10:39:58;;;;;;;24.48;13.00;;;;;;;16.19;88.75;101317.19;5030642;28;20025;-78
2022/10/22 10:42:43;;;;;;;20.33;7.07;;;;;;;16.37;88.52;101312.09;5045211;28;20034;-79
2022/10/22 10:45:33;;;;;;;15.18;5.80;;;;;;;16.49;86.84;101317.84;5033009;28;20033;-78
2022/10/22 10:48:27;;;;;;;16.42;4.63;;;;;;;16.52;84.40;101328.41;5033811;28;20044;-79
2022/10/22 10:51:16;;;;;;;14.50;3.70;;;;;;;16.51;84.08;101324.00;5016890;28;20049;-78
2022/10/22 10:54:06;;;;;;;7.90;2.65;;;;;;;16.58;84.61;101327.31;5031106;28;20405;-78
2022/10/22 10:56:40;;;;;;;9.63;2.97;;;;;;;16.66;83.30;101322.50;5032238;28;20091;-78
2022/10/22 10:59:41;;;;;;;15.88;5.20;;;;;;;16.87;83.47;101328.84;5031758;28;20038;-78
2022/10/22 11:02:22;;;;;;;18.70;5.10;;;;;;;17.03;81.62;101337.13;5030317;28;20074;-78
2022/10/22 11:04:56;;;;;;;18.20;6.82;;;;;;;16.94;81.28;101325.00;5044515;28;20037;-78
2022/10/22 11:07:30;;;;;;;14.00;5.82;;;;;;;16.76;81.17;101339.06;5033639;28;20040;-79
2022/10/22 11:10:40;;;;;;;13.82;4.35;;;;;;;16.66;82.77;101325.19;5034764;28;20458;-77
2022/10/22 11:13:26;;;;;;;26.02;12.75;;;;;;;16.80;82.89;101329.16;5032661;28;20461;-78
2022/10/22 11:16:06;;;;;;;24.08;8.65;;;;;;;16.83;81.87;101339.75;5050821;28;20041;-79
2022/10/22 11:18:41;;;;;;;19.13;8.00;;;;;;;16.80;82.61;101338.06;5030950;28;20061;-78
2022/10/22 11:21:41;;;;;;;16.08;7.10;;;;;;;16.84;81.36;101333.44;5030009;28;20204;-78
2022/10/22 11:24:06;;;;;;;26.05;10.68;;;;;;;16.77;80.75;101335.47;5002921;28;20051;-78
2022/10/22 11:26:45;;;;;;;35.92;11.38;;;;;;;16.68;81.01;101331.34;5044987;28;20030;-78